Time;durP1;ratioP1;P1;durP2;ratioP2;P2;SDS_P1;SDS_P2;PMS_P1;PMS_P2;Temp;Humidity;BMP_temperature;BMP_pressure;BME280_temperature;BME280_humidity;BME280_pressure;Samples;Min_cycle;Max_cycle;Signal;HPM_P1;HPM_P2
2022/12/07 00:01:41;;;;;;;0.70;0.70;;;4.50;99.90;;;;;;5015031;28;20100;-81
2022/12/07 00:04:09;;;;;;;0.70;0.70;;;4.50;99.90;;;;;;5009363;28;20285;-81
2022/12/07 00:06:38;;;;;;;0.70;0.70;;;4.50;99.90;;;;;;5008111;28;20046;-81
2022/12/07 00:09:05;;;;;;;0.70;0.70;;;4.50;99.90;;;;;;5005649;28;20893;-81
2022/12/07 00:11:31;;;;;;;0.70;0.70;;;4.40;99.90;;;;;;5008987;28;20075;-81
2022/12/07 00:14:02;;;;;;;0.70;0.70;;;4.40;99.90;;;;;;5011184;28;20044;-81
2022/12/07 00:16:31;;;;;;;0.70;0.70;;;4.40;99.90;;;;;;5007304;28;20819;-80
2022/12/07 00:18:57;;;;;;;0.70;0.70;;;4.40;99.90;;;;;;5009900;28;20074;-81
2022/12/07 00:21:25;;;;;;;0.70;0.70;;;4.50;99.90;;;;;;5011959;28;20481;-81
2022/12/07 00:23:53;;;;;;;0.70;0.70;;;4.40;99.90;;;;;;5015507;28;20051;-81
2022/12/07 00:26:25;;;;;;;0.70;0.70;;;4.40;99.90;;;;;;5008988;28;20187;-80
2022/12/07 00:28:55;;;;;;;0.70;0.70;;;4.40;99.90;;;;;;5014542;28;20063;-81
2022/12/07 00:31:24;;;;;;;0.70;0.70;;;4.40;99.90;;;;;;5013620;28;20051;-81
2022/12/07 00:33:50;;;;;;;0.70;0.70;;;4.30;99.90;;;;;;4998990;28;20121;-81
2022/12/07 00:36:19;;;;;;;0.70;0.70;;;4.40;99.90;;;;;;4995896;28;20873;-81
2022/12/07 00:38:45;;;;;;;0.80;0.80;;;4.30;99.90;;;;;;4995106;28;20056;-81
2022/12/07 00:41:14;;;;;;;0.70;0.70;;;4.30;99.90;;;;;;4990195;28;20075;-81
2022/12/07 00:43:41;;;;;;;0.70;0.70;;;4.20;99.90;;;;;;4995678;28;21185;-80
2022/12/07 00:46:06;;;;;;;0.70;0.70;;;4.10;99.90;;;;;;4987054;28;20048;-81
2022/12/07 00:48:33;;;;;;;0.70;0.70;;;4.10;99.90;;;;;;4993023;28;20121;-80
2022/12/07 00:50:59;;;;;;;0.70;0.70;;;4.10;99.90;;;;;;4995365;28;20721;-81
2022/12/07 00:53:26;;;;;;;0.70;0.70;;;4.10;99.90;;;;;;4976805;28;20253;-81
2022/12/07 00:55:52;;;;;;;0.60;0.60;;;4.00;99.90;;;;;;4999725;28;20040;-80
2022/12/07 00:58:19;;;;;;;0.70;0.70;;;4.00;99.90;;;;;;4987564;28;20462;-81
2022/12/07 01:00:45;;;;;;;0.70;0.70;;;4.00;99.90;;;;;;4991955;28;20121;-80
2022/12/07 01:03:12;;;;;;;0.70;0.70;;;4.00;99.90;;;;;;4999168;28;20036;-81
2022/12/07 01:05:39;;;;;;;0.70;0.70;;;3.90;99.90;;;;;;4995238;28;20050;-80
2022/12/07 01:08:05;;;;;;;0.70;0.70;;;4.00;99.90;;;;;;5000415;28;20052;-81
2022/12/07 01:10:32;;;;;;;0.70;0.70;;;4.10;99.90;;;;;;5000182;28;20067;-81
2022/12/07 01:12:58;;;;;;;0.70;0.70;;;4.00;99.90;;;;;;4994021;28;20397;-81
2022/12/07 01:15:24;;;;;;;0.70;0.70;;;4.10;99.90;;;;;;5000281;28;20487;-80
2022/12/07 01:17:50;;;;;;;0.70;0.70;;;4.00;99.90;;;;;;4995439;28;20056;-80
2022/12/07 01:20:16;;;;;;;0.70;0.70;;;4.00;99.90;;;;;;4992076;28;20113;-81
2022/12/07 01:22:43;;;;;;;0.70;0.70;;;4.00;99.90;;;;;;5000870;28;20055;-81
2022/12/07 01:25:10;;;;;;;0.70;0.70;;;4.10;99.90;;;;;;4991322;28;20121;-80
2022/12/07 01:27:37;;;;;;;0.70;0.70;;;4.00;99.90;;;;;;5001794;28;20529;-81
2022/12/07 01:30:05;;;;;;;0.70;0.70;;;4.10;99.90;;;;;;5000074;28;20051;-81
2022/12/07 01:32:31;;;;;;;0.70;0.70;;;4.00;99.90;;;;;;5009304;27;20209;-81
2022/12/07 01:34:57;;;;;;;0.70;0.70;;;4.00;99.90;;;;;;5017351;27;20055;-80
2022/12/07 01:37:23;;;;;;;0.70;0.70;;;4.00;99.90;;;;;;5019870;27;20462;-81
2022/12/07 01:39:50;;;;;;;0.70;0.70;;;4.00;99.90;;;;;;5038682;27;20082;-81
2022/12/07 01:42:16;;;;;;;0.70;0.70;;;4.00;99.90;;;;;;5021145;27;20462;-81
2022/12/07 01:45:19;;;;;;;0.70;0.70;;;4.00;99.90;;;;;;5004386;27;20035;-81
2022/12/07 01:47:50;;;;;;;0.70;0.70;;;4.00;99.90;;;;;;5017969;27;20042;-81
2022/12/07 01:50:16;;;;;;;0.70;0.70;;;4.20;99.90;;;;;;5019978;27;20062;-81
2022/12/07 01:52:44;;;;;;;0.70;0.70;;;4.30;99.90;;;;;;5015524;27;20083;-80
2022/12/07 01:55:13;;;;;;;0.63;0.63;;;4.20;99.90;;;;;;5032432;27;20047;-81
2022/12/07 01:57:47;;;;;;;0.60;0.60;;;4.20;99.90;;;;;;5035578;27;20074;-81
2022/12/07 02:00:13;;;;;;;0.70;0.70;;;4.30;99.90;;;;;;5024006;27;20146;-81
2022/12/07 02:02:55;;;;;;;0.70;0.70;;;4.20;99.90;;;;;;5019244;27;20213;-80
2022/12/07 02:05:23;;;;;;;0.70;0.70;;;4.20;99.90;;;;;;5018758;27;20215;-80
2022/12/07 02:07:50;;;;;;;0.70;0.70;;;4.30;99.90;;;;;;5016219;27;20050;-81
2022/12/07 02:10:18;;;;;;;0.70;0.70;;;4.20;99.90;;;;;;5015442;27;20278;-81
2022/12/07 02:12:47;;;;;;;0.77;0.77;;;4.10;99.90;;;;;;5018432;27;20062;-81
2022/12/07 02:15:13;;;;;;;0.70;0.70;;;4.20;99.90;;;;;;5016274;27;20125;-80
2022/12/07 02:17:39;;;;;;;0.70;0.70;;;4.20;99.90;;;;;;5041421;27;20061;-81
2022/12/07 02:20:27;;;;;;;0.80;0.80;;;4.20;99.90;;;;;;5016867;27;20451;-81
2022/12/07 02:23:47;;;;;;;0.80;0.80;;;4.30;99.90;;;;;;5020454;27;20106;-80
2022/12/07 02:26:44;;;;;;;0.80;0.80;;;4.30;99.90;;;;;;4955577;28;20058;-81
2022/12/07 02:29:24;;;;;;;0.70;0.70;;;4.50;99.90;;;;;;5036652;27;20058;-80
2022/12/07 02:32:13;;;;;;;0.80;0.80;;;4.40;99.90;;;;;;5006063;27;20146;-81
2022/12/07 02:34:45;;;;;;;0.77;0.77;;;4.50;99.90;;;;;;5032827;27;20062;-80
2022/12/07 02:37:37;;;;;;;0.70;0.70;;;4.50;99.90;;;;;;5025426;27;20083;-80
2022/12/07 02:40:20;;;;;;;0.70;0.70;;;4.40;99.90;;;;;;5042607;27;20889;-81
2022/12/07 02:43:00;;;;;;;0.70;0.70;;;4.40;99.90;;;;;;5026299;27;20077;-80
2022/12/07 02:45:29;;;;;;;0.75;0.75;;;4.40;99.90;;;;;;5027404;27;20078;-81
2022/12/07 02:47:58;;;;;;;0.70;0.70;;;4.30;99.90;;;;;;5031830;27;20047;-81
2022/12/07 02:50:24;;;;;;;0.80;0.80;;;4.30;99.90;;;;;;5022797;27;20780;-81
2022/12/07 02:52:50;;;;;;;0.70;0.70;;;4.30;99.90;;;;;;5027812;27;20049;-81
2022/12/07 02:55:19;;;;;;;0.70;0.70;;;4.30;99.90;;;;;;5023712;27;20439;-80
2022/12/07 02:58:00;;;;;;;0.77;0.77;;;4.30;99.90;;;;;;5034018;27;20059;-81
2022/12/07 03:00:26;;;;;;;0.70;0.70;;;4.20;99.90;;;;;;5040430;27;20491;-81
2022/12/07 03:03:03;;;;;;;0.70;0.70;;;4.20;99.90;;;;;;5019209;27;20120;-81
2022/12/07 03:06:03;;;;;;;0.70;0.70;;;4.10;99.90;;;;;;5014568;27;20927;-81
2022/12/07 03:08:47;;;;;;;0.70;0.70;;;4.10;99.90;;;;;;4997302;27;20199;-81
2022/12/07 03:11:44;;;;;;;0.70;0.70;;;3.90;99.90;;;;;;4997756;27;20521;-81
2022/12/07 03:14:24;;;;;;;0.70;0.70;;;3.90;99.90;;;;;;5022207;27;20861;-80
2022/12/07 03:17:13;;;;;;;0.70;0.70;;;3.90;99.90;;;;;;4996844;27;20825;-81
2022/12/07 03:19:41;;;;;;;0.77;0.77;;;3.90;99.90;;;;;;5023750;27;20425;-80
2022/12/07 03:22:12;;;;;;;0.70;0.70;;;4.00;99.90;;;;;;5022919;27;20054;-81
2022/12/07 03:24:56;;;;;;;0.70;0.70;;;4.10;99.90;;;;;;5046788;27;20047;-81
2022/12/07 03:27:44;;;;;;;0.70;0.70;;;4.10;99.90;;;;;;5017318;27;20497;-81
2022/12/07 03:30:14;;;;;;;0.70;0.70;;;4.10;99.90;;;;;;5012065;27;20035;-81
2022/12/07 03:32:43;;;;;;;0.70;0.70;;;4.00;99.90;;;;;;5035314;27;20403;-81
2022/12/07 03:35:43;;;;;;;0.70;0.70;;;4.10;99.90;;;;;;5024820;27;20110;-81
2022/12/07 03:38:21;;;;;;;0.70;0.70;;;4.00;99.90;;;;;;5020357;27;20083;-81
2022/12/07 03:40:54;;;;;;;0.70;0.70;;;4.10;99.90;;;;;;5013764;27;20043;-81
2022/12/07 03:43:21;;;;;;;0.70;0.70;;;4.10;99.90;;;;;;5014824;27;20765;-81
2022/12/07 03:46:17;;;;;;;0.70;0.70;;;4.10;99.90;;;;;;5015761;27;20054;-81
2022/12/07 03:49:05;;;;;;;0.70;0.70;;;4.00;99.90;;;;;;5018829;27;20055;-81
2022/12/07 03:51:51;;;;;;;0.70;0.70;;;4.20;99.90;;;;;;5019429;27;20176;-81
2022/12/07 03:54:36;;;;;;;0.80;0.80;;;4.10;99.90;;;;;;5013360;27;20578;-81
2022/12/07 03:57:04;;;;;;;0.80;0.80;;;4.20;99.90;;;;;;5013637;27;20043;-81
2022/12/07 03:59:30;;;;;;;0.70;0.70;;;4.10;99.90;;;;;;5017793;27;20055;-81
2022/12/07 04:02:02;;;;;;;0.70;0.70;;;4.20;99.90;;;;;;5022297;27;20597;-80
2022/12/07 04:04:29;;;;;;;0.70;0.70;;;4.10;99.90;;;;;;5035339;27;20046;-81
2022/12/07 04:06:55;;;;;;;0.80;0.80;;;4.00;99.90;;;;;;5019080;27;20135;-80
2022/12/07 04:09:20;;;;;;;0.75;0.75;;;4.00;99.90;;;;;;5023849;27;20531;-80
2022/12/07 04:11:46;;;;;;;0.70;0.70;;;4.00;99.90;;;;;;5021735;27;20603;-80
2022/12/07 04:14:19;;;;;;;0.80;0.80;;;4.00;99.90;;;;;;5019224;27;20039;-80
2022/12/07 04:16:45;;;;;;;0.80;0.80;;;4.00;99.90;;;;;;5022676;27;20543;-80
2022/12/07 04:19:11;;;;;;;0.70;0.70;;;4.00;99.90;;;;;;5013355;27;20085;-80
2022/12/07 04:21:37;;;;;;;0.80;0.80;;;3.90;99.90;;;;;;5009741;27;20866;-80
2022/12/07 04:24:04;;;;;;;0.70;0.70;;;3.80;99.90;;;;;;5033217;27;20073;-80
2022/12/07 04:26:30;;;;;;;0.80;0.80;;;3.70;99.90;;;;;;5015485;27;20259;-80
2022/12/07 04:28:56;;;;;;;0.70;0.70;;;3.80;99.90;;;;;;5037936;27;20134;-80
2022/12/07 04:31:21;;;;;;;0.80;0.80;;;3.70;99.90;;;;;;5037161;27;20051;-80
2022/12/07 04:33:47;;;;;;;0.70;0.70;;;3.70;99.90;;;;;;5017215;27;20039;-80
2022/12/07 04:36:13;;;;;;;0.70;0.70;;;3.70;99.90;;;;;;5017086;27;20181;-80
2022/12/07 04:38:39;;;;;;;0.77;0.77;;;3.60;99.90;;;;;;4991246;28;20660;-80
2022/12/07 04:41:06;;;;;;;0.80;0.80;;;3.70;99.90;;;;;;5037173;27;20130;-80
2022/12/07 04:43:38;;;;;;;0.70;0.70;;;3.60;99.90;;;;;;5019130;28;20546;-80
2022/12/07 04:46:04;;;;;;;0.70;0.70;;;3.40;99.90;;;;;;5011807;28;20075;-80
2022/12/07 04:48:30;;;;;;;0.70;0.70;;;3.50;99.90;;;;;;5033310;28;20051;-81
2022/12/07 04:50:56;;;;;;;0.70;0.70;;;3.50;99.90;;;;;;5002011;28;20489;-80
2022/12/07 04:53:22;;;;;;;0.70;0.70;;;3.50;99.90;;;;;;5015560;28;20123;-81
2022/12/07 04:55:48;;;;;;;0.70;0.70;;;3.40;99.90;;;;;;5020144;28;20065;-80
2022/12/07 04:58:14;;;;;;;0.70;0.70;;;3.40;99.90;;;;;;5020933;28;20085;-80
2022/12/07 05:00:40;;;;;;;0.70;0.70;;;3.40;99.90;;;;;;5017929;28;20051;-80
2022/12/07 05:03:06;;;;;;;0.70;0.70;;;3.40;99.90;;;;;;5016214;28;21173;-80
2022/12/07 05:05:32;;;;;;;0.70;0.70;;;3.50;99.90;;;;;;5015282;28;20571;-81
2022/12/07 05:07:57;;;;;;;0.70;0.70;;;3.40;99.90;;;;;;4991331;28;20783;-81
2022/12/07 05:10:23;;;;;;;0.70;0.70;;;3.30;99.90;;;;;;5018099;28;20238;-81
2022/12/07 05:12:49;;;;;;;0.70;0.70;;;3.20;99.90;;;;;;5014661;28;20043;-81
2022/12/07 05:15:15;;;;;;;0.70;0.70;;;3.20;99.90;;;;;;5015497;28;20047;-81
2022/12/07 05:17:41;;;;;;;0.70;0.70;;;3.20;99.90;;;;;;4995499;28;20498;-81
2022/12/07 05:20:08;;;;;;;0.70;0.70;;;3.20;99.90;;;;;;5007226;28;20042;-81
2022/12/07 05:22:34;;;;;;;0.70;0.70;;;3.20;99.90;;;;;;5009567;28;20420;-81
2022/12/07 05:25:00;;;;;;;0.70;0.70;;;3.30;99.90;;;;;;5009730;28;20059;-80
2022/12/07 05:27:26;;;;;;;0.63;0.63;;;3.30;99.90;;;;;;5011789;28;20406;-80
2022/12/07 05:29:51;;;;;;;0.70;0.70;;;3.30;99.90;;;;;;5007268;28;20039;-81
2022/12/07 05:32:18;;;;;;;0.70;0.70;;;3.20;99.90;;;;;;5039362;28;20082;-81
2022/12/07 05:34:43;;;;;;;0.88;0.88;;;3.20;99.90;;;;;;5013174;28;20819;-80
2022/12/07 05:37:09;;;;;;;0.70;0.70;;;3.30;99.90;;;;;;5028944;28;20091;-80
2022/12/07 05:39:35;;;;;;;0.70;0.70;;;3.30;99.90;;;;;;5015338;28;20485;-80
2022/12/07 05:42:12;;;;;;;0.70;0.70;;;3.40;99.90;;;;;;5017235;28;20522;-80
2022/12/07 05:44:44;;;;;;;0.70;0.70;;;3.30;99.90;;;;;;5018850;27;21214;-80
2022/12/07 05:47:11;;;;;;;0.70;0.70;;;3.30;99.90;;;;;;5015279;27;20115;-80
2022/12/07 05:49:36;;;;;;;0.70;0.70;;;3.30;99.90;;;;;;5017881;27;20249;-81
2022/12/07 05:52:03;;;;;;;0.70;0.70;;;3.30;99.90;;;;;;5014593;27;20439;-81
2022/12/07 05:54:28;;;;;;;0.70;0.70;;;3.50;99.90;;;;;;5011463;27;20938;-80
2022/12/07 05:56:55;;;;;;;0.70;0.70;;;3.60;99.90;;;;;;5020024;27;20043;-80
2022/12/07 05:59:23;;;;;;;0.70;0.70;;;3.50;99.90;;;;;;4998336;27;20577;-80
2022/12/07 06:02:18;;;;;;;0.70;0.70;;;3.50;99.90;;;;;;5013528;27;20325;-80
2022/12/07 06:04:46;;;;;;;0.70;0.70;;;3.60;99.90;;;;;;4995264;27;20364;-80
2022/12/07 06:07:14;;;;;;;0.70;0.70;;;3.60;99.90;;;;;;5019455;27;21330;-80
2022/12/07 06:09:41;;;;;;;0.70;0.70;;;3.50;99.90;;;;;;5036615;27;20431;-80
2022/12/07 06:14:53;;;;;;;0.70;0.70;;;3.40;99.90;;;;;;5037298;27;20516;-80
2022/12/07 06:17:19;;;;;;;0.60;0.60;;;3.40;99.90;;;;;;5017364;27;20051;-80
2022/12/07 06:19:45;;;;;;;0.70;0.70;;;3.30;99.90;;;;;;5020133;27;20046;-80
2022/12/07 06:22:11;;;;;;;0.70;0.70;;;3.20;99.90;;;;;;5024656;27;20075;-81
2022/12/07 06:24:38;;;;;;;0.70;0.70;;;3.20;99.90;;;;;;5015425;27;20077;-81
2022/12/07 06:27:04;;;;;;;0.70;0.70;;;3.20;99.90;;;;;;5018795;27;20078;-80
2022/12/07 06:29:30;;;;;;;0.70;0.70;;;3.20;99.90;;;;;;5004637;27;20187;-80
2022/12/07 06:31:56;;;;;;;0.70;0.70;;;3.20;99.90;;;;;;4998713;27;20134;-80
2022/12/07 06:34:23;;;;;;;0.70;0.70;;;3.10;99.90;;;;;;5016045;27;20047;-80
2022/12/07 06:36:54;;;;;;;0.70;0.70;;;3.00;99.90;;;;;;4991573;27;20055;-81
2022/12/07 06:39:28;;;;;;;0.70;0.70;;;3.00;99.90;;;;;;5021415;27;20055;-81
2022/12/07 06:41:54;;;;;;;;;;;3.00;99.90;;;;;;5001264;27;20069;-81
2022/12/07 06:44:20;;;;;;;0.70;0.70;;;2.90;99.90;;;;;;5002501;27;19927;-81
2022/12/07 06:46:46;;;;;;;0.70;0.70;;;2.90;99.90;;;;;;5018430;27;20063;-80
2022/12/07 06:49:12;;;;;;;0.70;0.70;;;2.90;99.90;;;;;;5022626;27;20049;-80
2022/12/07 06:51:41;;;;;;;0.70;0.70;;;2.90;99.90;;;;;;5015395;27;20051;-81
2022/12/07 06:54:08;;;;;;;0.70;0.70;;;2.90;99.90;;;;;;5015844;27;20413;-81
2022/12/07 06:56:34;;;;;;;0.70;0.70;;;3.00;99.90;;;;;;5034406;27;20793;-81
2022/12/07 06:58:59;;;;;;;0.70;0.70;;;3.00;99.90;;;;;;5011727;27;20115;-81
2022/12/07 07:01:25;;;;;;;0.70;0.70;;;3.20;99.90;;;;;;5015600;27;20484;-81
2022/12/07 07:03:51;;;;;;;0.70;0.70;;;3.10;99.90;;;;;;5030877;27;20049;-81
2022/12/07 07:06:16;;;;;;;0.70;0.70;;;3.10;99.90;;;;;;5026982;27;20051;-80
2022/12/07 07:08:42;;;;;;;0.70;0.70;;;3.10;99.90;;;;;;5009887;27;20054;-81
2022/12/07 07:11:09;;;;;;;0.80;0.80;;;3.00;99.90;;;;;;5019534;27;20118;-81
2022/12/07 07:13:35;;;;;;;0.70;0.70;;;3.00;99.90;;;;;;5011428;27;20134;-81
2022/12/07 07:16:01;;;;;;;0.70;0.70;;;3.20;99.90;;;;;;5029804;27;20039;-81
2022/12/07 07:18:27;;;;;;;0.70;0.70;;;3.10;99.90;;;;;;5016153;27;20858;-81
2022/12/07 07:20:53;;;;;;;0.70;0.70;;;3.20;99.90;;;;;;5017669;27;20047;-80
2022/12/07 07:23:20;;;;;;;0.70;0.70;;;3.10;99.90;;;;;;5034265;27;20118;-80
2022/12/07 07:25:46;;;;;;;0.70;0.70;;;3.20;99.90;;;;;;5025831;27;20496;-82
2022/12/07 07:28:12;;;;;;;0.80;0.80;;;3.20;99.90;;;;;;5029299;27;20396;-80
2022/12/07 07:30:38;;;;;;;0.70;0.70;;;3.20;99.90;;;;;;5049436;27;20569;-81
2022/12/07 07:33:04;;;;;;;0.70;0.70;;;3.20;99.90;;;;;;5046119;27;20369;-80
2022/12/07 07:35:32;;;;;;;0.60;0.60;;;3.20;99.90;;;;;;5026240;27;20471;-81
2022/12/07 07:37:58;;;;;;;0.70;0.70;;;3.20;99.90;;;;;;5026603;27;20051;-80
2022/12/07 07:40:24;;;;;;;0.70;0.70;;;3.30;99.90;;;;;;5013016;27;20490;-81
2022/12/07 07:42:51;;;;;;;0.70;0.70;;;3.30;99.90;;;;;;5010668;27;20050;-81
2022/12/07 07:45:18;;;;;;;0.70;0.70;;;3.40;99.90;;;;;;5016818;27;20047;-81
2022/12/07 07:47:44;;;;;;;0.70;0.70;;;3.50;99.90;;;;;;5053056;27;20077;-80
2022/12/07 07:50:10;;;;;;;0.70;0.70;;;3.50;99.90;;;;;;5030240;27;20047;-82
2022/12/07 07:52:36;;;;;;;0.70;0.70;;;3.60;99.90;;;;;;5030774;27;20370;-80
2022/12/07 07:55:02;;;;;;;0.63;0.63;;;3.70;99.90;;;;;;5025976;27;20050;-82
2022/12/07 07:57:28;;;;;;;0.70;0.70;;;3.70;99.90;;;;;;5031372;27;20047;-81
2022/12/07 07:59:53;;;;;;;0.70;0.70;;;3.80;99.90;;;;;;5038016;27;20204;-80
2022/12/07 08:02:22;;;;;;;0.60;0.60;;;3.90;99.90;;;;;;5033733;27;20067;-81
2022/12/07 08:04:48;;;;;;;0.70;0.70;;;3.90;99.90;;;;;;5032236;27;20050;-80
2022/12/07 08:07:15;;;;;;;0.70;0.70;;;4.00;99.90;;;;;;5034130;27;20045;-81
2022/12/07 08:09:41;;;;;;;0.70;0.70;;;4.00;99.90;;;;;;5039137;27;20086;-80
2022/12/07 08:12:07;;;;;;;0.60;0.60;;;3.90;99.90;;;;;;5034984;27;20124;-80
2022/12/07 08:14:33;;;;;;;0.60;0.60;;;3.90;99.90;;;;;;5047915;27;20051;-80
2022/12/07 08:17:00;;;;;;;0.60;0.60;;;3.90;99.90;;;;;;5049433;27;20210;-80
2022/12/07 08:19:26;;;;;;;0.70;0.70;;;4.00;99.90;;;;;;5030586;27;20046;-80
2022/12/07 08:21:51;;;;;;;0.70;0.70;;;4.00;99.90;;;;;;5023756;27;20369;-80
2022/12/07 08:24:17;;;;;;;0.70;0.70;;;4.00;99.90;;;;;;5012735;27;21083;-81
2022/12/07 08:26:43;;;;;;;0.60;0.60;;;4.10;99.90;;;;;;5020922;27;20055;-81
2022/12/07 08:29:09;;;;;;;0.70;0.70;;;4.20;99.90;;;;;;5020922;28;20082;-82
2022/12/07 08:31:35;;;;;;;0.70;0.70;;;4.30;99.90;;;;;;4995928;27;20582;-82
2022/12/07 08:34:01;;;;;;;0.70;0.70;;;4.30;99.90;;;;;;5006010;28;20047;-81
2022/12/07 08:36:27;;;;;;;0.70;0.70;;;4.20;99.90;;;;;;5015232;27;20633;-81
2022/12/07 08:38:53;;;;;;;0.70;0.70;;;4.20;99.90;;;;;;5019046;28;20162;-80
2022/12/07 08:41:19;;;;;;;0.70;0.70;;;4.30;99.90;;;;;;5022849;27;20051;-81
2022/12/07 08:43:44;;;;;;;0.70;0.70;;;4.40;99.90;;;;;;5019349;27;20524;-82
2022/12/07 08:46:23;;;;;;;0.60;0.60;;;4.40;99.90;;;;;;5001387;28;20070;-82
2022/12/07 08:48:58;;;;;;;0.70;0.70;;;4.50;99.90;;;;;;5017564;28;20292;-82
2022/12/07 08:51:24;;;;;;;0.70;0.70;;;4.50;99.90;;;;;;5017507;28;20516;-83
2022/12/07 08:53:52;;;;;;;0.70;0.70;;;4.50;99.90;;;;;;5014134;28;20771;-81
2022/12/07 08:56:19;;;;;;;0.70;0.70;;;4.60;99.90;;;;;;5020699;28;20051;-82
2022/12/07 08:58:45;;;;;;;0.70;0.70;;;4.50;99.90;;;;;;5016891;28;20609;-82
2022/12/07 09:01:10;;;;;;;0.70;0.70;;;4.50;99.90;;;;;;5016029;28;20796;-81
2022/12/07 09:03:36;;;;;;;0.70;0.70;;;4.40;99.90;;;;;;5021515;28;20069;-82
2022/12/07 09:06:02;;;;;;;0.70;0.70;;;4.30;99.90;;;;;;4997703;28;20051;-80
2022/12/07 09:08:33;;;;;;;0.70;0.70;;;4.30;99.90;;;;;;5018767;28;20488;-82
2022/12/07 09:10:59;;;;;;;0.70;0.70;;;4.20;99.90;;;;;;5018436;28;20050;-80
2022/12/07 09:13:25;;;;;;;0.60;0.60;;;4.10;99.90;;;;;;5024195;28;20047;-83
2022/12/07 09:15:50;;;;;;;0.70;0.70;;;4.20;99.90;;;;;;5004414;28;20043;-82
2022/12/07 09:18:16;;;;;;;0.65;0.65;;;4.20;99.90;;;;;;5023129;27;20039;-82
2022/12/07 09:20:42;;;;;;;0.60;0.60;;;4.50;99.90;;;;;;5015156;27;20054;-82
2022/12/07 09:23:08;;;;;;;0.70;0.70;;;4.70;99.90;;;;;;5030806;27;20492;-83
2022/12/07 09:25:34;;;;;;;0.70;0.70;;;5.00;99.90;;;;;;5023603;27;20399;-83
2022/12/07 09:28:00;;;;;;;0.70;0.70;;;5.20;99.90;;;;;;5003160;27;20699;-80
2022/12/07 09:30:27;;;;;;;0.70;0.70;;;5.60;99.90;;;;;;5011473;27;20047;-82
2022/12/07 09:32:54;;;;;;;0.60;0.60;;;5.50;99.90;;;;;;5018837;27;20911;-82
2022/12/07 09:35:21;;;;;;;0.70;0.70;;;5.30;99.90;;;;;;5004105;27;20051;-82
2022/12/07 09:37:46;;;;;;;0.60;0.60;;;5.30;99.90;;;;;;5020048;27;20544;-84
2022/12/07 09:40:13;;;;;;;0.70;0.70;;;5.10;99.90;;;;;;5025661;27;20151;-80
2022/12/07 09:42:44;;;;;;;0.70;0.70;;;5.10;99.90;;;;;;5031395;27;20078;-81
2022/12/07 09:45:26;;;;;;;0.70;0.70;;;5.10;99.90;;;;;;5007397;27;20058;-83
2022/12/07 09:47:52;;;;;;;0.70;0.70;;;5.00;99.90;;;;;;5033460;27;20039;-81
2022/12/07 09:50:26;;;;;;;0.60;0.60;;;5.00;99.90;;;;;;5027399;27;20451;-81
2022/12/07 09:52:53;;;;;;;;;;;5.20;99.90;;;;;;5021565;27;20047;-81
2022/12/07 09:55:25;;;;;;;0.70;0.70;;;5.40;99.90;;;;;;5016513;27;20582;-81
2022/12/07 09:57:53;;;;;;;0.70;0.70;;;5.50;99.90;;;;;;5020667;27;20055;-81
2022/12/07 10:00:21;;;;;;;0.70;0.70;;;5.60;99.90;;;;;;5020766;27;20108;-84
2022/12/07 10:02:50;;;;;;;0.70;0.70;;;5.70;99.90;;;;;;5021623;27;20429;-82
2022/12/07 10:05:19;;;;;;;0.70;0.70;;;5.70;99.90;;;;;;5019908;27;20051;-80
2022/12/07 10:07:45;;;;;;;0.70;0.70;;;5.90;99.90;;;;;;5040656;27;20051;-81
2022/12/07 10:10:22;;;;;;;0.70;0.70;;;6.00;99.90;;;;;;5025265;27;20050;-83
2022/12/07 10:13:06;;;;;;;0.60;0.60;;;6.20;99.90;;;;;;5020254;27;20057;-81
2022/12/07 10:15:52;;;;;;;0.68;0.68;;;6.40;99.90;;;;;;5015939;27;20913;-81
2022/12/07 10:18:40;;;;;;;0.65;0.65;;;6.50;99.90;;;;;;5037088;27;20069;-81
2022/12/07 10:21:20;;;;;;;0.70;0.70;;;6.70;99.90;;;;;;5019820;27;20526;-81
2022/12/07 10:24:21;;;;;;;0.68;0.68;;;6.60;99.90;;;;;;5020963;27;20057;-80
2022/12/07 10:26:52;;;;;;;0.70;0.70;;;6.70;99.90;;;;;;5001154;27;20467;-82
2022/12/07 10:29:21;;;;;;;0.70;0.70;;;6.70;99.90;;;;;;4995663;28;20633;-79
2022/12/07 10:31:58;;;;;;;0.70;0.70;;;6.80;99.90;;;;;;5020370;27;20119;-82
2022/12/07 10:34:26;;;;;;;0.70;0.70;;;6.90;99.90;;;;;;4996726;28;20389;-81
2022/12/07 10:36:53;;;;;;;0.70;0.70;;;6.70;99.90;;;;;;5015329;28;20058;-82
2022/12/07 10:39:23;;;;;;;0.60;0.60;;;6.50;99.90;;;;;;5001401;28;20051;-81
2022/12/07 10:41:57;;;;;;;0.70;0.70;;;6.60;99.90;;;;;;5014789;28;20625;-81
2022/12/07 10:44:34;;;;;;;0.70;0.70;;;6.50;99.90;;;;;;5030834;28;21256;-81
2022/12/07 10:47:15;;;;;;;0.60;0.60;;;6.40;99.90;;;;;;5027103;28;20563;-81
2022/12/07 10:49:43;;;;;;;0.70;0.70;;;6.20;99.90;;;;;;5043210;28;20051;-81
2022/12/07 10:52:30;;;;;;;0.60;0.60;;;6.30;99.90;;;;;;5020641;28;20112;-80
2022/12/07 10:55:15;;;;;;;0.60;0.60;;;6.20;99.90;;;;;;5013578;28;20047;-80
2022/12/07 10:57:43;;;;;;;0.60;0.60;;;6.20;99.90;;;;;;5011095;28;20043;-80
2022/12/07 11:00:14;;;;;;;0.70;0.70;;;6.30;99.90;;;;;;5013999;28;20048;-81
2022/12/07 11:02:59;;;;;;;0.70;0.70;;;6.20;99.90;;;;;;4995002;28;20532;-80
2022/12/07 11:05:42;;;;;;;0.60;0.60;;;6.20;99.90;;;;;;5020277;28;20069;-83
2022/12/07 11:08:11;;;;;;;0.65;0.65;;;6.30;99.90;;;;;;5012539;28;20532;-81
2022/12/07 11:11:02;;;;;;;0.70;0.70;;;6.40;99.90;;;;;;4993764;28;20051;-81
2022/12/07 11:13:52;;;;;;;0.60;0.60;;;6.60;99.90;;;;;;4960594;28;20399;-83
2022/12/07 11:16:30;;;;;;;0.70;0.70;;;6.60;99.90;;;;;;4999886;28;20425;-82
2022/12/07 11:19:29;;;;;;;0.60;0.60;;;6.80;99.90;;;;;;5018744;28;20797;-83
2022/12/07 11:22:09;;;;;;;0.60;0.60;;;7.10;99.90;;;;;;5019264;28;20580;-82
2022/12/07 11:24:56;;;;;;;0.70;0.70;;;7.50;99.90;;;;;;5013400;28;20047;-82
2022/12/07 11:27:54;;;;;;;0.70;0.70;;;7.60;99.90;;;;;;5014763;27;20632;-82
2022/12/07 11:30:27;;;;;;;0.70;0.70;;;7.50;99.90;;;;;;4999569;28;20090;-83
2022/12/07 11:33:16;;;;;;;0.70;0.70;;;7.50;99.90;;;;;;5021106;28;20568;-82
2022/12/07 11:36:03;;;;;;;0.63;0.63;;;7.40;99.90;;;;;;5021961;28;20086;-81
2022/12/07 11:38:52;;;;;;;0.63;0.63;;;7.40;99.90;;;;;;5012878;28;20086;-81
2022/12/07 11:41:24;;;;;;;0.70;0.70;;;7.30;99.90;;;;;;5002224;28;20258;-81
2022/12/07 11:44:06;;;;;;;0.70;0.70;;;7.30;99.90;;;;;;5017044;28;20056;-82
2022/12/07 11:46:58;;;;;;;0.70;0.70;;;7.30;99.90;;;;;;5014679;28;20438;-82
2022/12/07 11:49:37;;;;;;;0.60;0.60;;;7.20;99.90;;;;;;4999729;28;20407;-81
2022/12/07 11:52:09;;;;;;;0.70;0.70;;;7.30;99.90;;;;;;5012067;28;20397;-81
2022/12/07 11:54:39;;;;;;;0.70;0.70;;;7.20;99.90;;;;;;5013383;28;20062;-81
2022/12/07 11:57:17;;;;;;;0.70;0.70;;;7.30;99.90;;;;;;5016948;28;20054;-81
2022/12/07 11:59:52;;;;;;;0.70;0.70;;;7.20;99.90;;;;;;5013651;28;20696;-81
2022/12/07 12:02:28;;;;;;;0.70;0.70;;;7.20;99.90;;;;;;5013708;28;20047;-82
2022/12/07 12:05:02;;;;;;;0.68;0.68;;;7.20;99.90;;;;;;5009644;28;20124;-82
2022/12/07 12:07:28;;;;;;;0.70;0.70;;;7.30;99.90;;;;;;5010626;28;20047;-82
2022/12/07 12:10:00;;;;;;;0.68;0.68;;;7.40;99.90;;;;;;5018830;28;20085;-81
2022/12/07 12:12:57;;;;;;;0.70;0.70;;;7.30;99.90;;;;;;5022885;28;20693;-80
2022/12/07 12:15:55;;;;;;;0.70;0.70;;;7.30;99.90;;;;;;5018288;28;20218;-81
2022/12/07 12:18:35;;;;;;;0.70;0.70;;;7.10;99.90;;;;;;5011973;28;20543;-81
2022/12/07 12:21:08;;;;;;;0.70;0.70;;;7.30;99.90;;;;;;5010889;28;20043;-82
2022/12/07 12:23:46;;;;;;;0.70;0.70;;;7.40;99.90;;;;;;5012066;28;20043;-82
2022/12/07 12:26:27;;;;;;;0.65;0.65;;;7.50;99.90;;;;;;5006578;28;20824;-82
2022/12/07 12:29:00;;;;;;;0.70;0.70;;;7.50;99.90;;;;;;5012428;28;20389;-81
2022/12/07 12:31:36;;;;;;;0.68;0.68;;;7.50;99.90;;;;;;5010904;28;20044;-81
2022/12/07 12:34:24;;;;;;;0.70;0.70;;;7.60;99.90;;;;;;5011521;28;20070;-81
2022/12/07 12:36:50;;;;;;;0.70;0.70;;;7.70;99.90;;;;;;5013817;28;20767;-82
2022/12/07 12:39:20;;;;;;;0.70;0.70;;;7.90;99.90;;;;;;5011510;28;20093;-83
2022/12/07 12:44:15;;;;;;;0.70;0.70;;;7.60;99.90;;;;;;5020547;28;20051;-82
2022/12/07 12:47:04;;;;;;;0.70;0.70;;;7.60;99.90;;;;;;5010516;28;20313;-80
2022/12/07 12:49:44;;;;;;;0.65;0.65;;;7.60;99.90;;;;;;5008300;28;21801;-82
2022/12/07 12:52:29;;;;;;;0.60;0.60;;;7.50;99.90;;;;;;5010663;28;20287;-81
2022/12/07 12:55:11;;;;;;;0.70;0.70;;;7.60;99.90;;;;;;5030717;27;20086;-82
2022/12/07 12:57:37;;;;;;;0.70;0.70;;;7.60;99.90;;;;;;5011857;28;20888;-82
2022/12/07 13:00:27;;;;;;;0.70;0.70;;;7.50;99.90;;;;;;5015161;28;20042;-82
2022/12/07 13:02:55;;;;;;;0.70;0.70;;;7.40;99.90;;;;;;5011011;28;20044;-82
2022/12/07 13:05:28;;;;;;;0.68;0.68;;;7.40;99.90;;;;;;4990771;28;20052;-82
2022/12/07 13:08:05;;;;;;;0.70;0.70;;;7.50;99.90;;;;;;5012068;28;20059;-83
2022/12/07 13:10:39;;;;;;;0.63;0.63;;;7.50;99.90;;;;;;5012198;28;20075;-82
2022/12/07 13:13:34;;;;;;;0.70;0.70;;;7.50;99.90;;;;;;4995673;28;20544;-82
2022/12/07 13:16:06;;;;;;;0.65;0.65;;;7.50;99.90;;;;;;5011159;28;20216;-84
2022/12/07 13:18:32;;;;;;;0.60;0.60;;;7.50;99.90;;;;;;4991384;28;20048;-83
2022/12/07 13:21:04;;;;;;;0.70;0.70;;;7.60;99.90;;;;;;4991928;28;20180;-82
2022/12/07 13:23:45;;;;;;;0.70;0.70;;;7.60;99.90;;;;;;5014799;28;21088;-83
2022/12/07 13:26:19;;;;;;;0.70;0.70;;;7.50;99.90;;;;;;5012723;28;20043;-82